sensor_id;sensor_type;location;lat;lon;timestamp;temperature;humidity
43520;DHT22;46848;51.980;5.918;2023-02-26T00:02:17;4.20;67.70
43520;DHT22;46848;51.980;5.918;2023-02-26T00:04:42;4.20;67.80
43520;DHT22;46848;51.980;5.918;2023-02-26T00:07:08;4.20;67.90
43520;DHT22;46848;51.980;5.918;2023-02-26T00:09:34;4.20;67.90
43520;DHT22;46848;51.980;5.918;2023-02-26T00:12:00;4.20;68.00
43520;DHT22;46848;51.980;5.918;2023-02-26T00:14:27;4.20;68.00
43520;DHT22;46848;51.980;5.918;2023-02-26T00:19:44;4.20;68.10
43520;DHT22;46848;51.980;5.918;2023-02-26T00:22:10;4.20;68.20
43520;DHT22;46848;51.980;5.918;2023-02-26T00:24:36;4.20;68.10
43520;DHT22;46848;51.980;5.918;2023-02-26T00:27:02;4.20;68.10
43520;DHT22;46848;51.980;5.918;2023-02-26T00:29:28;4.20;68.10
43520;DHT22;46848;51.980;5.918;2023-02-26T00:31:53;4.20;68.20
43520;DHT22;46848;51.980;5.918;2023-02-26T00:34:19;4.20;68.20
43520;DHT22;46848;51.980;5.918;2023-02-26T00:36:58;4.10;68.10
43520;DHT22;46848;51.980;5.918;2023-02-26T00:39:53;4.10;68.20
43520;DHT22;46848;51.980;5.918;2023-02-26T00:42:20;4.10;68.20
43520;DHT22;46848;51.980;5.918;2023-02-26T00:44:46;4.10;68.30
43520;DHT22;46848;51.980;5.918;2023-02-26T00:47:32;4.00;68.20
43520;DHT22;46848;51.980;5.918;2023-02-26T00:50:20;4.00;68.30
43520;DHT22;46848;51.980;5.918;2023-02-26T00:53:20;3.90;68.30
43520;DHT22;46848;51.980;5.918;2023-02-26T00:55:46;3.90;68.50
43520;DHT22;46848;51.980;5.918;2023-02-26T00:58:12;3.80;68.50
43520;DHT22;46848;51.980;5.918;2023-02-26T01:00:37;3.70;68.60
43520;DHT22;46848;51.980;5.918;2023-02-26T01:03:03;3.70;68.80
43520;DHT22;46848;51.980;5.918;2023-02-26T01:05:29;3.60;68.80
43520;DHT22;46848;51.980;5.918;2023-02-26T01:10:31;3.60;68.90
43520;DHT22;46848;51.980;5.918;2023-02-26T01:12:57;3.50;68.70
43520;DHT22;46848;51.980;5.918;2023-02-26T01:15:24;3.50;68.80
43520;DHT22;46848;51.980;5.918;2023-02-26T01:18:07;3.40;68.80
43520;DHT22;46848;51.980;5.918;2023-02-26T01:20:39;3.40;68.80
43520;DHT22;46848;51.980;5.918;2023-02-26T01:23:10;3.40;68.70
43520;DHT22;46848;51.980;5.918;2023-02-26T01:25:55;3.40;68.70
43520;DHT22;46848;51.980;5.918;2023-02-26T01:28:22;3.40;68.70
43520;DHT22;46848;51.980;5.918;2023-02-26T01:30:50;3.40;68.50
43520;DHT22;46848;51.980;5.918;2023-02-26T01:33:29;3.40;68.60
43520;DHT22;46848;51.980;5.918;2023-02-26T01:36:21;3.30;68.50
43520;DHT22;46848;51.980;5.918;2023-02-26T01:38:52;3.30;68.70
43520;DHT22;46848;51.980;5.918;2023-02-26T01:41:42;3.30;68.70
43520;DHT22;46848;51.980;5.918;2023-02-26T01:44:31;3.40;68.80
43520;DHT22;46848;51.980;5.918;2023-02-26T01:47:15;3.40;68.70
43520;DHT22;46848;51.980;5.918;2023-02-26T01:49:42;3.40;68.80
43520;DHT22;46848;51.980;5.918;2023-02-26T01:55:12;3.40;68.80
43520;DHT22;46848;51.980;5.918;2023-02-26T01:57:37;3.40;68.80
43520;DHT22;46848;51.980;5.918;2023-02-26T02:00:04;3.40;68.80
43520;DHT22;46848;51.980;5.918;2023-02-26T02:02:30;3.40;68.80
43520;DHT22;46848;51.980;5.918;2023-02-26T02:04:56;3.50;69.00
43520;DHT22;46848;51.980;5.918;2023-02-26T02:07:23;3.50;68.90
43520;DHT22;46848;51.980;5.918;2023-02-26T02:09:48;3.50;68.90
43520;DHT22;46848;51.980;5.918;2023-02-26T02:15:21;3.50;69.10
43520;DHT22;46848;51.980;5.918;2023-02-26T02:20:58;3.50;69.10
43520;DHT22;46848;51.980;5.918;2023-02-26T02:23:42;3.50;69.00
43520;DHT22;46848;51.980;5.918;2023-02-26T02:31:44;3.50;69.10
43520;DHT22;46848;51.980;5.918;2023-02-26T02:34:16;3.50;69.10
43520;DHT22;46848;51.980;5.918;2023-02-26T02:36:54;3.60;69.20
43520;DHT22;46848;51.980;5.918;2023-02-26T02:41:56;3.60;69.10
43520;DHT22;46848;51.980;5.918;2023-02-26T02:44:25;3.50;68.90
43520;DHT22;46848;51.980;5.918;2023-02-26T02:46:54;3.50;69.00
43520;DHT22;46848;51.980;5.918;2023-02-26T02:49:26;3.50;68.90
43520;DHT22;46848;51.980;5.918;2023-02-26T02:52:01;3.40;68.80
43520;DHT22;46848;51.980;5.918;2023-02-26T02:54:37;3.40;68.90
43520;DHT22;46848;51.980;5.918;2023-02-26T02:57:18;3.30;68.70
43520;DHT22;46848;51.980;5.918;2023-02-26T02:59:50;3.30;68.70
43520;DHT22;46848;51.980;5.918;2023-02-26T03:05:02;3.20;68.40
43520;DHT22;46848;51.980;5.918;2023-02-26T03:07:30;3.10;68.70
43520;DHT22;46848;51.980;5.918;2023-02-26T03:09:57;3.10;68.80
43520;DHT22;46848;51.980;5.918;2023-02-26T03:12:25;3.10;68.70
43520;DHT22;46848;51.980;5.918;2023-02-26T03:14:51;3.00;68.80
43520;DHT22;46848;51.980;5.918;2023-02-26T03:17:28;3.00;68.90
43520;DHT22;46848;51.980;5.918;2023-02-26T03:28:25;3.00;68.90
43520;DHT22;46848;51.980;5.918;2023-02-26T03:31:08;3.00;69.10
43520;DHT22;46848;51.980;5.918;2023-02-26T03:34:03;3.00;69.00
43520;DHT22;46848;51.980;5.918;2023-02-26T03:36:39;2.90;68.70
43520;DHT22;46848;51.980;5.918;2023-02-26T03:39:15;2.90;68.50
43520;DHT22;46848;51.980;5.918;2023-02-26T03:44:20;2.80;68.70
43520;DHT22;46848;51.980;5.918;2023-02-26T03:46:53;2.90;68.90
43520;DHT22;46848;51.980;5.918;2023-02-26T03:49:28;2.90;69.00
43520;DHT22;46848;51.980;5.918;2023-02-26T03:51:57;2.90;68.90
43520;DHT22;46848;51.980;5.918;2023-02-26T03:54:32;2.90;68.60
43520;DHT22;46848;51.980;5.918;2023-02-26T03:56:58;2.90;68.50
43520;DHT22;46848;51.980;5.918;2023-02-26T03:59:24;2.80;68.20
43520;DHT22;46848;51.980;5.918;2023-02-26T04:01:55;2.80;68.40
43520;DHT22;46848;51.980;5.918;2023-02-26T04:07:10;2.80;68.40
43520;DHT22;46848;51.980;5.918;2023-02-26T04:09:36;2.80;68.40
43520;DHT22;46848;51.980;5.918;2023-02-26T04:12:01;2.80;68.40
43520;DHT22;46848;51.980;5.918;2023-02-26T04:14:28;2.80;68.40
43520;DHT22;46848;51.980;5.918;2023-02-26T04:16:53;2.80;68.50
43520;DHT22;46848;51.980;5.918;2023-02-26T04:19:19;2.80;68.60
43520;DHT22;46848;51.980;5.918;2023-02-26T04:21:45;2.80;68.70
43520;DHT22;46848;51.980;5.918;2023-02-26T04:24:10;2.80;68.40
43520;DHT22;46848;51.980;5.918;2023-02-26T04:26:36;2.80;68.30
43520;DHT22;46848;51.980;5.918;2023-02-26T04:29:02;2.80;68.50
43520;DHT22;46848;51.980;5.918;2023-02-26T04:31:27;2.80;68.40
43520;DHT22;46848;51.980;5.918;2023-02-26T04:33:53;2.80;68.40
43520;DHT22;46848;51.980;5.918;2023-02-26T04:36:19;2.70;68.30
43520;DHT22;46848;51.980;5.918;2023-02-26T04:38:44;2.70;68.20
43520;DHT22;46848;51.980;5.918;2023-02-26T04:41:10;2.70;68.00
43520;DHT22;46848;51.980;5.918;2023-02-26T04:43:36;2.60;67.30
43520;DHT22;46848;51.980;5.918;2023-02-26T04:46:02;2.60;67.10
43520;DHT22;46848;51.980;5.918;2023-02-26T04:48:28;2.50;67.70
43520;DHT22;46848;51.980;5.918;2023-02-26T04:50:53;2.50;66.90
43520;DHT22;46848;51.980;5.918;2023-02-26T04:53:19;2.40;66.90
43520;DHT22;46848;51.980;5.918;2023-02-26T04:55:47;2.40;67.20
43520;DHT22;46848;51.980;5.918;2023-02-26T04:58:12;2.40;67.00
43520;DHT22;46848;51.980;5.918;2023-02-26T05:00:38;2.30;66.50
43520;DHT22;46848;51.980;5.918;2023-02-26T05:03:04;2.30;66.90
43520;DHT22;46848;51.980;5.918;2023-02-26T05:05:30;2.20;66.60
43520;DHT22;46848;51.980;5.918;2023-02-26T05:07:56;2.20;66.50
43520;DHT22;46848;51.980;5.918;2023-02-26T05:10:23;2.20;66.70
43520;DHT22;46848;51.980;5.918;2023-02-26T05:12:49;2.20;67.00
43520;DHT22;46848;51.980;5.918;2023-02-26T05:15:14;2.20;67.00
43520;DHT22;46848;51.980;5.918;2023-02-26T05:17:40;2.20;66.50
43520;DHT22;46848;51.980;5.918;2023-02-26T05:20:06;2.20;66.60
43520;DHT22;46848;51.980;5.918;2023-02-26T05:22:36;2.20;66.40
43520;DHT22;46848;51.980;5.918;2023-02-26T05:25:02;2.10;66.50
43520;DHT22;46848;51.980;5.918;2023-02-26T05:27:29;2.10;67.30
43520;DHT22;46848;51.980;5.918;2023-02-26T05:29:55;2.10;66.40
43520;DHT22;46848;51.980;5.918;2023-02-26T05:32:20;2.10;66.50
43520;DHT22;46848;51.980;5.918;2023-02-26T05:34:46;2.10;66.10
43520;DHT22;46848;51.980;5.918;2023-02-26T05:37:11;2.10;66.40
43520;DHT22;46848;51.980;5.918;2023-02-26T05:39:37;2.10;66.20
43520;DHT22;46848;51.980;5.918;2023-02-26T05:42:05;2.00;65.70
43520;DHT22;46848;51.980;5.918;2023-02-26T05:44:31;1.90;66.10
43520;DHT22;46848;51.980;5.918;2023-02-26T05:46:57;1.90;66.20
43520;DHT22;46848;51.980;5.918;2023-02-26T05:49:22;2.00;66.40
43520;DHT22;46848;51.980;5.918;2023-02-26T05:51:48;1.90;66.10
43520;DHT22;46848;51.980;5.918;2023-02-26T05:54:14;1.90;66.10
43520;DHT22;46848;51.980;5.918;2023-02-26T05:56:39;1.90;65.80
43520;DHT22;46848;51.980;5.918;2023-02-26T05:59:05;1.90;65.90
43520;DHT22;46848;51.980;5.918;2023-02-26T06:01:31;1.90;66.00
43520;DHT22;46848;51.980;5.918;2023-02-26T06:03:56;1.80;65.70
43520;DHT22;46848;51.980;5.918;2023-02-26T06:06:22;1.70;65.50
43520;DHT22;46848;51.980;5.918;2023-02-26T06:08:49;1.70;65.90
43520;DHT22;46848;51.980;5.918;2023-02-26T06:11:15;1.70;66.10
43520;DHT22;46848;51.980;5.918;2023-02-26T06:13:41;1.70;66.00
43520;DHT22;46848;51.980;5.918;2023-02-26T06:16:06;1.70;65.80
43520;DHT22;46848;51.980;5.918;2023-02-26T06:18:32;1.80;65.80
43520;DHT22;46848;51.980;5.918;2023-02-26T06:20:59;1.70;65.90
43520;DHT22;46848;51.980;5.918;2023-02-26T06:23:24;1.70;65.90
43520;DHT22;46848;51.980;5.918;2023-02-26T06:25:51;1.70;66.10
43520;DHT22;46848;51.980;5.918;2023-02-26T06:28:18;1.70;66.00
43520;DHT22;46848;51.980;5.918;2023-02-26T06:30:44;1.70;65.80
43520;DHT22;46848;51.980;5.918;2023-02-26T06:33:10;1.70;66.00
43520;DHT22;46848;51.980;5.918;2023-02-26T06:35:35;1.70;66.10
43520;DHT22;46848;51.980;5.918;2023-02-26T06:38:01;1.70;66.30
43520;DHT22;46848;51.980;5.918;2023-02-26T06:40:27;1.70;66.00
43520;DHT22;46848;51.980;5.918;2023-02-26T06:42:53;1.70;65.90
43520;DHT22;46848;51.980;5.918;2023-02-26T06:45:18;1.70;65.90
43520;DHT22;46848;51.980;5.918;2023-02-26T06:47:44;1.70;65.90
43520;DHT22;46848;51.980;5.918;2023-02-26T06:50:10;1.70;65.90
43520;DHT22;46848;51.980;5.918;2023-02-26T06:52:36;1.60;65.90
43520;DHT22;46848;51.980;5.918;2023-02-26T06:55:03;1.70;66.00
43520;DHT22;46848;51.980;5.918;2023-02-26T06:57:28;1.70;66.00
43520;DHT22;46848;51.980;5.918;2023-02-26T06:59:54;1.70;66.00
43520;DHT22;46848;51.980;5.918;2023-02-26T07:02:21;1.60;66.00
43520;DHT22;46848;51.980;5.918;2023-02-26T07:04:47;1.70;66.00
43520;DHT22;46848;51.980;5.918;2023-02-26T07:07:13;1.70;65.80
43520;DHT22;46848;51.980;5.918;2023-02-26T07:09:39;1.70;65.90
43520;DHT22;46848;51.980;5.918;2023-02-26T07:12:05;1.70;66.10
43520;DHT22;46848;51.980;5.918;2023-02-26T07:14:32;1.80;65.90
43520;DHT22;46848;51.980;5.918;2023-02-26T07:16:58;1.80;66.00
43520;DHT22;46848;51.980;5.918;2023-02-26T07:19:24;1.80;65.80
43520;DHT22;46848;51.980;5.918;2023-02-26T07:21:49;1.80;65.80
43520;DHT22;46848;51.980;5.918;2023-02-26T07:24:15;1.80;65.90
43520;DHT22;46848;51.980;5.918;2023-02-26T07:26:41;1.90;66.10
43520;DHT22;46848;51.980;5.918;2023-02-26T07:29:07;2.00;66.10
43520;DHT22;46848;51.980;5.918;2023-02-26T07:31:32;2.30;66.20
43520;DHT22;46848;51.980;5.918;2023-02-26T07:33:58;2.60;65.00
43520;DHT22;46848;51.980;5.918;2023-02-26T07:36:24;3.00;64.80
43520;DHT22;46848;51.980;5.918;2023-02-26T07:38:49;3.40;64.10
43520;DHT22;46848;51.980;5.918;2023-02-26T07:41:15;3.80;62.90
43520;DHT22;46848;51.980;5.918;2023-02-26T07:43:41;4.10;61.50
43520;DHT22;46848;51.980;5.918;2023-02-26T07:46:07;4.40;60.80
43520;DHT22;46848;51.980;5.918;2023-02-26T07:48:33;4.90;59.70
43520;DHT22;46848;51.980;5.918;2023-02-26T07:50:58;5.20;59.20
43520;DHT22;46848;51.980;5.918;2023-02-26T07:53:24;5.70;58.50
43520;DHT22;46848;51.980;5.918;2023-02-26T07:55:49;6.00;56.60
43520;DHT22;46848;51.980;5.918;2023-02-26T07:58:15;6.20;55.70
43520;DHT22;46848;51.980;5.918;2023-02-26T08:00:41;6.60;56.70
43520;DHT22;46848;51.980;5.918;2023-02-26T08:03:06;7.00;55.10
43520;DHT22;46848;51.980;5.918;2023-02-26T08:05:32;7.40;55.60
43520;DHT22;46848;51.980;5.918;2023-02-26T08:08:01;7.80;54.70
43520;DHT22;46848;51.980;5.918;2023-02-26T08:10:28;8.20;54.50
43520;DHT22;46848;51.980;5.918;2023-02-26T08:12:54;8.60;54.40
43520;DHT22;46848;51.980;5.918;2023-02-26T08:15:19;9.10;53.80
43520;DHT22;46848;51.980;5.918;2023-02-26T08:17:45;9.40;53.00
43520;DHT22;46848;51.980;5.918;2023-02-26T08:20:11;9.70;53.80
43520;DHT22;46848;51.980;5.918;2023-02-26T08:22:38;10.10;51.80
43520;DHT22;46848;51.980;5.918;2023-02-26T08:25:04;10.30;52.80
43520;DHT22;46848;51.980;5.918;2023-02-26T08:27:30;10.50;52.40
43520;DHT22;46848;51.980;5.918;2023-02-26T08:29:55;10.80;52.40
43520;DHT22;46848;51.980;5.918;2023-02-26T08:32:21;10.80;48.50
43520;DHT22;46848;51.980;5.918;2023-02-26T08:34:47;10.70;47.20
43520;DHT22;46848;51.980;5.918;2023-02-26T08:37:13;10.60;52.70
43520;DHT22;46848;51.980;5.918;2023-02-26T08:39:39;10.90;53.70
43520;DHT22;46848;51.980;5.918;2023-02-26T08:42:06;11.20;54.10
43520;DHT22;46848;51.980;5.918;2023-02-26T08:44:32;11.50;56.90
43520;DHT22;46848;51.980;5.918;2023-02-26T08:46:58;11.80;56.70
43520;DHT22;46848;51.980;5.918;2023-02-26T08:49:24;12.10;57.00
43520;DHT22;46848;51.980;5.918;2023-02-26T08:51:49;12.20;55.70
43520;DHT22;46848;51.980;5.918;2023-02-26T08:54:15;12.30;57.90
43520;DHT22;46848;51.980;5.918;2023-02-26T08:56:41;12.70;60.20
43520;DHT22;46848;51.980;5.918;2023-02-26T08:59:07;13.00;57.50
43520;DHT22;46848;51.980;5.918;2023-02-26T09:01:34;13.20;60.10
43520;DHT22;46848;51.980;5.918;2023-02-26T09:04:00;13.30;59.80
43520;DHT22;46848;51.980;5.918;2023-02-26T09:06:26;13.40;59.70
43520;DHT22;46848;51.980;5.918;2023-02-26T09:08:51;13.30;59.80
43520;DHT22;46848;51.980;5.918;2023-02-26T09:11:17;13.20;64.70
43520;DHT22;46848;51.980;5.918;2023-02-26T09:13:43;13.40;66.50
43520;DHT22;46848;51.980;5.918;2023-02-26T09:16:10;13.70;61.00
43520;DHT22;46848;51.980;5.918;2023-02-26T09:18:35;13.70;59.80
43520;DHT22;46848;51.980;5.918;2023-02-26T09:21:01;13.50;60.50
43520;DHT22;46848;51.980;5.918;2023-02-26T09:23:28;13.50;58.90
43520;DHT22;46848;51.980;5.918;2023-02-26T09:25:54;13.60;62.40
43520;DHT22;46848;51.980;5.918;2023-02-26T09:28:22;13.80;62.80
43520;DHT22;46848;51.980;5.918;2023-02-26T09:30:51;13.70;64.50
43520;DHT22;46848;51.980;5.918;2023-02-26T09:33:17;13.80;64.90
43520;DHT22;46848;51.980;5.918;2023-02-26T09:35:43;14.00;67.10
43520;DHT22;46848;51.980;5.918;2023-02-26T09:38:09;14.10;66.10
43520;DHT22;46848;51.980;5.918;2023-02-26T09:41:01;14.20;67.10
43520;DHT22;46848;51.980;5.918;2023-02-26T09:43:36;14.20;62.20
43520;DHT22;46848;51.980;5.918;2023-02-26T09:48:47;14.00;60.50
43520;DHT22;46848;51.980;5.918;2023-02-26T09:51:18;14.00;63.80
43520;DHT22;46848;51.980;5.918;2023-02-26T09:53:48;13.70;56.30
43520;DHT22;46848;51.980;5.918;2023-02-26T09:56:23;13.60;59.20
43520;DHT22;46848;51.980;5.918;2023-02-26T09:58:49;13.30;54.50
43520;DHT22;46848;51.980;5.918;2023-02-26T10:01:34;13.10;53.50
43520;DHT22;46848;51.980;5.918;2023-02-26T10:04:12;12.90;54.70
43520;DHT22;46848;51.980;5.918;2023-02-26T10:12:16;12.80;52.50
43520;DHT22;46848;51.980;5.918;2023-02-26T10:20:24;12.50;52.80
43520;DHT22;46848;51.980;5.918;2023-02-26T10:25:22;12.80;64.10
43520;DHT22;46848;51.980;5.918;2023-02-26T10:30:34;12.70;46.80
43520;DHT22;46848;51.980;5.918;2023-02-26T10:33:20;12.20;48.40
43520;DHT22;46848;51.980;5.918;2023-02-26T10:36:00;11.80;52.20
43520;DHT22;46848;51.980;5.918;2023-02-26T10:38:30;11.60;42.40
43520;DHT22;46848;51.980;5.918;2023-02-26T10:41:05;11.40;50.50
43520;DHT22;46848;51.980;5.918;2023-02-26T10:43:40;11.40;52.60
43520;DHT22;46848;51.980;5.918;2023-02-26T10:51:39;11.80;43.10
43520;DHT22;46848;51.980;5.918;2023-02-26T10:56:40;11.50;43.90
43520;DHT22;46848;51.980;5.918;2023-02-26T10:59:06;11.40;42.80
43520;DHT22;46848;51.980;5.918;2023-02-26T11:01:32;11.10;45.10
43520;DHT22;46848;51.980;5.918;2023-02-26T11:04:05;11.00;48.00
43520;DHT22;46848;51.980;5.918;2023-02-26T11:06:45;10.90;44.40
43520;DHT22;46848;51.980;5.918;2023-02-26T11:09:34;10.90;42.90
43520;DHT22;46848;51.980;5.918;2023-02-26T11:14:36;11.10;48.10
43520;DHT22;46848;51.980;5.918;2023-02-26T11:17:23;11.20;42.20
43520;DHT22;46848;51.980;5.918;2023-02-26T11:19:58;11.10;45.50
43520;DHT22;46848;51.980;5.918;2023-02-26T11:22:30;11.00;44.30
43520;DHT22;46848;51.980;5.918;2023-02-26T11:24:57;10.90;43.40
43520;DHT22;46848;51.980;5.918;2023-02-26T11:27:26;10.80;44.30
43520;DHT22;46848;51.980;5.918;2023-02-26T11:30:04;10.70;42.30
43520;DHT22;46848;51.980;5.918;2023-02-26T11:32:33;10.60;42.50
43520;DHT22;46848;51.980;5.918;2023-02-26T11:34:59;10.40;39.70
43520;DHT22;46848;51.980;5.918;2023-02-26T11:37:30;10.20;42.10
43520;DHT22;46848;51.980;5.918;2023-02-26T11:40:16;10.20;40.30
43520;DHT22;46848;51.980;5.918;2023-02-26T11:42:54;10.10;42.70
43520;DHT22;46848;51.980;5.918;2023-02-26T11:45:21;10.20;42.50
43520;DHT22;46848;51.980;5.918;2023-02-26T11:47:59;10.20;43.20
43520;DHT22;46848;51.980;5.918;2023-02-26T11:50:28;10.30;40.60
43520;DHT22;46848;51.980;5.918;2023-02-26T11:52:55;10.30;41.50
43520;DHT22;46848;51.980;5.918;2023-02-26T11:55:28;10.30;43.40
43520;DHT22;46848;51.980;5.918;2023-02-26T11:57:56;10.50;44.50
43520;DHT22;46848;51.980;5.918;2023-02-26T12:00:30;10.70;42.90
43520;DHT22;46848;51.980;5.918;2023-02-26T12:03:00;10.80;42.60
43520;DHT22;46848;51.980;5.918;2023-02-26T12:05:29;10.80;43.00
43520;DHT22;46848;51.980;5.918;2023-02-26T12:07:57;10.90;41.60
43520;DHT22;46848;51.980;5.918;2023-02-26T12:16:24;10.80;42.70
43520;DHT22;46848;51.980;5.918;2023-02-26T12:19:09;10.80;40.90
43520;DHT22;46848;51.980;5.918;2023-02-26T12:27:35;10.90;40.20
43520;DHT22;46848;51.980;5.918;2023-02-26T12:32:26;10.70;39.80
43520;DHT22;46848;51.980;5.918;2023-02-26T12:37:42;10.30;40.00
43520;DHT22;46848;51.980;5.918;2023-02-26T12:40:40;10.20;40.50
43520;DHT22;46848;51.980;5.918;2023-02-26T12:43:30;10.20;40.10
43520;DHT22;46848;51.980;5.918;2023-02-26T12:52:14;10.50;40.70
43520;DHT22;46848;51.980;5.918;2023-02-26T13:00:17;10.60;40.30
43520;DHT22;46848;51.980;5.918;2023-02-26T13:08:37;10.60;40.30
43520;DHT22;46848;51.980;5.918;2023-02-26T13:14:34;10.80;39.70
43520;DHT22;46848;51.980;5.918;2023-02-26T13:19:51;10.70;39.60
43520;DHT22;46848;51.980;5.918;2023-02-26T13:22:36;10.50;39.70
43520;DHT22;46848;51.980;5.918;2023-02-26T13:27:51;10.30;39.10
43520;DHT22;46848;51.980;5.918;2023-02-26T13:30:28;10.40;40.90
43520;DHT22;46848;51.980;5.918;2023-02-26T13:32:57;10.60;40.90
43520;DHT22;46848;51.980;5.918;2023-02-26T13:35:33;10.60;40.80
43520;DHT22;46848;51.980;5.918;2023-02-26T13:38:13;10.80;41.70
43520;DHT22;46848;51.980;5.918;2023-02-26T13:41:09;10.90;40.70
43520;DHT22;46848;51.980;5.918;2023-02-26T13:43:56;11.00;41.10
43520;DHT22;46848;51.980;5.918;2023-02-26T13:51:46;11.10;40.10
43520;DHT22;46848;51.980;5.918;2023-02-26T13:56:47;11.30;40.30
43520;DHT22;46848;51.980;5.918;2023-02-26T14:01:56;11.30;38.70
43520;DHT22;46848;51.980;5.918;2023-02-26T14:04:24;11.30;38.30
43520;DHT22;46848;51.980;5.918;2023-02-26T14:25:11;10.80;39.30
43520;DHT22;46848;51.980;5.918;2023-02-26T14:27:42;10.80;39.10
43520;DHT22;46848;51.980;5.918;2023-02-26T14:35:41;10.70;40.70
43520;DHT22;46848;51.980;5.918;2023-02-26T14:38:20;10.70;40.30
43520;DHT22;46848;51.980;5.918;2023-02-26T14:40:54;10.70;41.00
43520;DHT22;46848;51.980;5.918;2023-02-26T14:43:33;10.80;41.90
43520;DHT22;46848;51.980;5.918;2023-02-26T14:46:01;10.90;40.90
43520;DHT22;46848;51.980;5.918;2023-02-26T14:48:28;10.90;40.70
43520;DHT22;46848;51.980;5.918;2023-02-26T14:53:28;10.80;40.20
43520;DHT22;46848;51.980;5.918;2023-02-26T14:56:05;10.60;40.10
43520;DHT22;46848;51.980;5.918;2023-02-26T14:58:45;10.40;40.50
43520;DHT22;46848;51.980;5.918;2023-02-26T15:04:27;10.20;41.50
43520;DHT22;46848;51.980;5.918;2023-02-26T15:10:16;10.20;42.20
43520;DHT22;46848;51.980;5.918;2023-02-26T15:15:55;10.20;40.70
43520;DHT22;46848;51.980;5.918;2023-02-26T15:18:48;10.10;40.60
43520;DHT22;46848;51.980;5.918;2023-02-26T15:21:50;9.90;41.10
43520;DHT22;46848;51.980;5.918;2023-02-26T15:24:22;9.90;40.90
43520;DHT22;46848;51.980;5.918;2023-02-26T15:26:57;9.80;42.50
43520;DHT22;46848;51.980;5.918;2023-02-26T15:29:30;9.90;42.00
43520;DHT22;46848;51.980;5.918;2023-02-26T15:31:58;9.70;41.40
43520;DHT22;46848;51.980;5.918;2023-02-26T15:34:28;9.70;42.40
43520;DHT22;46848;51.980;5.918;2023-02-26T15:36:56;9.70;41.40
43520;DHT22;46848;51.980;5.918;2023-02-26T15:39:25;9.50;41.50
43520;DHT22;46848;51.980;5.918;2023-02-26T15:41:53;9.60;42.70
43520;DHT22;46848;51.980;5.918;2023-02-26T15:44:26;9.60;42.20
43520;DHT22;46848;51.980;5.918;2023-02-26T15:46:58;9.70;42.40
43520;DHT22;46848;51.980;5.918;2023-02-26T15:49:37;9.60;42.40
43520;DHT22;46848;51.980;5.918;2023-02-26T15:52:06;9.50;41.60
43520;DHT22;46848;51.980;5.918;2023-02-26T15:54:37;9.40;42.30
43520;DHT22;46848;51.980;5.918;2023-02-26T15:57:04;9.40;42.90
43520;DHT22;46848;51.980;5.918;2023-02-26T15:59:31;9.30;42.30
43520;DHT22;46848;51.980;5.918;2023-02-26T16:01:57;9.20;42.70
43520;DHT22;46848;51.980;5.918;2023-02-26T16:04:26;9.20;43.70
43520;DHT22;46848;51.980;5.918;2023-02-26T16:06:56;9.20;43.90
43520;DHT22;46848;51.980;5.918;2023-02-26T16:09:32;9.20;43.60
43520;DHT22;46848;51.980;5.918;2023-02-26T16:12:08;9.20;44.30
43520;DHT22;46848;51.980;5.918;2023-02-26T16:14:37;9.10;44.60
43520;DHT22;46848;51.980;5.918;2023-02-26T16:17:05;9.10;44.10
43520;DHT22;46848;51.980;5.918;2023-02-26T16:21:58;8.80;44.50
43520;DHT22;46848;51.980;5.918;2023-02-26T16:24:26;8.70;44.60
43520;DHT22;46848;51.980;5.918;2023-02-26T16:26:55;8.70;44.40
43520;DHT22;46848;51.980;5.918;2023-02-26T16:29:29;8.50;45.10
43520;DHT22;46848;51.980;5.918;2023-02-26T16:31:58;8.50;45.40
43520;DHT22;46848;51.980;5.918;2023-02-26T16:34:51;8.40;45.80
43520;DHT22;46848;51.980;5.918;2023-02-26T16:37:25;8.40;45.80
43520;DHT22;46848;51.980;5.918;2023-02-26T16:40:03;8.30;46.10
43520;DHT22;46848;51.980;5.918;2023-02-26T16:47:58;8.20;46.80
43520;DHT22;46848;51.980;5.918;2023-02-26T16:50:29;8.30;47.00
43520;DHT22;46848;51.980;5.918;2023-02-26T16:53:08;8.20;47.10
43520;DHT22;46848;51.980;5.918;2023-02-26T16:55:38;8.20;47.10
43520;DHT22;46848;51.980;5.918;2023-02-26T16:58:07;8.20;47.80
43520;DHT22;46848;51.980;5.918;2023-02-26T17:00:35;8.10;47.40
43520;DHT22;46848;51.980;5.918;2023-02-26T17:03:11;8.10;48.10
43520;DHT22;46848;51.980;5.918;2023-02-26T17:05:40;8.10;48.00
43520;DHT22;46848;51.980;5.918;2023-02-26T17:08:14;8.00;48.30
43520;DHT22;46848;51.980;5.918;2023-02-26T17:11:08;7.90;48.50
43520;DHT22;46848;51.980;5.918;2023-02-26T17:13:35;7.90;48.70
43520;DHT22;46848;51.980;5.918;2023-02-26T17:16:07;7.90;48.80
43520;DHT22;46848;51.980;5.918;2023-02-26T17:18:35;7.80;49.10
43520;DHT22;46848;51.980;5.918;2023-02-26T17:21:01;7.80;49.30
43520;DHT22;46848;51.980;5.918;2023-02-26T17:23:31;7.80;49.10
43520;DHT22;46848;51.980;5.918;2023-02-26T17:25:58;7.70;49.60
43520;DHT22;46848;51.980;5.918;2023-02-26T17:28:29;7.70;49.60
43520;DHT22;46848;51.980;5.918;2023-02-26T17:30:56;7.60;49.50
43520;DHT22;46848;51.980;5.918;2023-02-26T17:33:22;7.40;50.00
43520;DHT22;46848;51.980;5.918;2023-02-26T17:35:48;7.40;50.60
43520;DHT22;46848;51.980;5.918;2023-02-26T17:38:15;7.30;50.90
43520;DHT22;46848;51.980;5.918;2023-02-26T17:40:43;7.30;51.30
43520;DHT22;46848;51.980;5.918;2023-02-26T17:43:09;7.20;51.80
43520;DHT22;46848;51.980;5.918;2023-02-26T17:45:37;7.10;52.40
43520;DHT22;46848;51.980;5.918;2023-02-26T17:48:05;7.10;52.90
43520;DHT22;46848;51.980;5.918;2023-02-26T17:53:06;7.00;53.60
43520;DHT22;46848;51.980;5.918;2023-02-26T17:55:33;6.90;53.90
43520;DHT22;46848;51.980;5.918;2023-02-26T17:58:00;6.90;54.00
43520;DHT22;46848;51.980;5.918;2023-02-26T18:00:26;6.90;54.10
43520;DHT22;46848;51.980;5.918;2023-02-26T18:02:52;6.80;54.40
43520;DHT22;46848;51.980;5.918;2023-02-26T18:05:18;6.70;54.30
43520;DHT22;46848;51.980;5.918;2023-02-26T18:07:45;6.70;54.60
43520;DHT22;46848;51.980;5.918;2023-02-26T18:10:20;6.60;54.80
43520;DHT22;46848;51.980;5.918;2023-02-26T18:12:47;6.50;55.20
43520;DHT22;46848;51.980;5.918;2023-02-26T18:15:13;6.40;55.20
43520;DHT22;46848;51.980;5.918;2023-02-26T18:17:39;6.40;55.30
43520;DHT22;46848;51.980;5.918;2023-02-26T18:20:07;6.50;55.40
43520;DHT22;46848;51.980;5.918;2023-02-26T18:22:34;6.30;55.40
43520;DHT22;46848;51.980;5.918;2023-02-26T18:25:00;6.30;55.50
43520;DHT22;46848;51.980;5.918;2023-02-26T18:27:26;6.30;55.60
43520;DHT22;46848;51.980;5.918;2023-02-26T18:29:52;6.30;55.70
43520;DHT22;46848;51.980;5.918;2023-02-26T18:32:22;6.20;55.90
43520;DHT22;46848;51.980;5.918;2023-02-26T18:34:49;6.20;56.00
43520;DHT22;46848;51.980;5.918;2023-02-26T18:37:18;6.10;56.30
43520;DHT22;46848;51.980;5.918;2023-02-26T18:39:45;6.10;56.50
43520;DHT22;46848;51.980;5.918;2023-02-26T18:42:22;6.10;56.60
43520;DHT22;46848;51.980;5.918;2023-02-26T18:44:49;6.00;56.60
43520;DHT22;46848;51.980;5.918;2023-02-26T18:47:15;6.00;56.70
43520;DHT22;46848;51.980;5.918;2023-02-26T18:49:41;6.00;56.90